createdAt,value
2018-09-06T00:04:54.588Z,7.00
2018-09-06T00:09:59.555Z,7.60
2018-09-06T00:15:05.187Z,7.60
2018-09-06T00:20:10.175Z,6.10
2018-09-06T00:25:15.349Z,6.53
2018-09-06T00:30:20.539Z,6.80
2018-09-06T00:35:25.775Z,7.23
2018-09-06T00:40:31.046Z,8.40
2018-09-06T00:45:36.747Z,8.83
2018-09-06T00:50:41.700Z,8.77
2018-09-06T00:55:46.739Z,8.23
2018-09-06T01:00:52.071Z,7.87
2018-09-06T01:05:57.496Z,7.63
2018-09-06T01:11:02.515Z,8.67
2018-09-06T01:16:07.639Z,8.47
2018-09-06T01:21:12.588Z,9.63
2018-09-06T01:26:18.904Z,9.13
2018-09-06T01:31:24.956Z,10.73
2018-09-06T01:36:35.241Z,15.30
2018-09-06T01:55:32.036Z,9.33
2018-09-06T02:00:37.957Z,21.30
2018-09-06T02:05:43.223Z,18.87
2018-09-06T02:10:48.468Z,15.47
2018-09-06T02:15:53.821Z,12.87
2018-09-06T02:20:58.778Z,12.57
2018-09-06T02:26:03.858Z,12.40
2018-09-06T02:31:09.019Z,18.40
2018-09-06T02:36:14.447Z,17.17
2018-09-06T02:41:19.355Z,12.37
2018-09-06T02:46:24.318Z,10.50
2018-09-06T02:51:29.343Z,12.57
2018-09-06T02:56:34.305Z,10.33
2018-09-06T03:01:39.272Z,10.83
2018-09-06T03:06:45.204Z,12.87
2018-09-06T03:11:53.263Z,10.87
2018-09-06T03:16:58.451Z,10.63
2018-09-06T03:22:03.402Z,9.83
2018-09-06T03:27:08.339Z,10.00
2018-09-06T03:32:13.258Z,10.77
2018-09-06T03:37:18.353Z,7.20
2018-09-06T03:42:23.343Z,7.30
2018-09-06T03:47:28.256Z,7.03
2018-09-06T03:52:33.357Z,7.03
2018-09-06T03:57:38.440Z,5.87
2018-09-06T04:02:43.407Z,7.07
2018-09-06T04:07:48.242Z,7.13
2018-09-06T04:12:53.500Z,9.03
2018-09-06T04:17:58.972Z,7.77
2018-09-06T04:23:04.060Z,8.27
2018-09-06T04:28:09.018Z,9.17
2018-09-06T04:33:13.929Z,9.97
2018-09-06T04:38:18.937Z,9.27
2018-09-06T04:43:23.841Z,8.33
2018-09-06T04:48:28.807Z,8.43
2018-09-06T04:53:33.835Z,8.63
2018-09-06T04:58:38.905Z,10.43
2018-09-06T05:03:44.277Z,10.87
2018-09-06T05:08:49.166Z,10.20
2018-09-06T05:13:54.060Z,10.07
2018-09-06T05:18:59.041Z,11.17
2018-09-06T05:24:04.529Z,10.13
2018-09-06T05:29:09.526Z,10.27
2018-09-06T05:34:14.474Z,10.23
2018-09-06T05:39:19.499Z,11.07
2018-09-06T05:44:24.587Z,11.23
2018-09-06T05:49:29.995Z,10.63
2018-09-06T05:54:34.955Z,9.73
2018-09-06T05:59:40.148Z,8.77
2018-09-06T06:04:45.819Z,9.43
2018-09-06T06:09:50.633Z,8.83
2018-09-06T06:14:55.690Z,9.27
2018-09-06T06:20:01.146Z,10.30
2018-09-06T06:25:06.630Z,10.83
2018-09-06T06:30:11.729Z,10.37
2018-09-06T06:35:16.789Z,11.83
2018-09-06T06:40:21.779Z,10.27
2018-09-06T06:45:26.815Z,14.70
2018-09-06T06:50:31.821Z,9.87
2018-09-06T06:55:37.676Z,10.83
2018-09-06T07:00:43.624Z,9.53
2018-09-06T07:05:48.540Z,10.50
2018-09-06T07:10:53.445Z,10.20
2018-09-06T07:15:58.436Z,10.87
2018-09-06T07:21:05.264Z,9.60
2018-09-06T07:26:10.666Z,9.50
2018-09-06T07:31:15.528Z,8.70
2018-09-06T07:36:20.453Z,8.57
2018-09-06T07:41:25.501Z,10.77
2018-09-06T07:46:31.871Z,9.43
2018-09-06T07:51:36.963Z,7.57
2018-09-06T07:56:42.134Z,7.40
2018-09-06T08:01:47.021Z,7.70
2018-09-06T08:06:52.040Z,7.93
2018-09-06T08:12:00.880Z,7.70
2018-09-06T08:17:05.952Z,7.13
2018-09-06T08:22:10.971Z,7.27
2018-09-06T08:27:15.943Z,7.10
2018-09-06T08:32:20.878Z,6.47
2018-09-06T08:37:25.905Z,6.60
2018-09-06T08:42:30.940Z,7.13
2018-09-06T08:47:36.059Z,7.73
2018-09-06T08:52:40.947Z,7.03
2018-09-06T08:57:46.026Z,7.03
2018-09-06T09:02:51.064Z,7.10
2018-09-06T09:07:55.964Z,6.87
2018-09-06T09:13:01.715Z,6.90
2018-09-06T09:18:07.114Z,6.60
2018-09-06T09:23:12.183Z,6.90
2018-09-06T09:28:17.238Z,6.20
2018-09-06T09:33:22.115Z,6.70
2018-09-06T09:38:26.998Z,7.20
2018-09-06T09:43:31.884Z,5.93
2018-09-06T09:48:36.964Z,7.67
2018-09-06T09:53:41.967Z,7.50
2018-09-06T09:58:47.143Z,5.87
2018-09-06T10:03:56.927Z,5.60
2018-09-06T10:09:06.923Z,5.23
2018-09-06T10:14:11.932Z,5.50
2018-09-06T10:19:17.255Z,4.50
2018-09-06T10:24:22.346Z,5.77
2018-09-06T10:29:27.409Z,4.67
2018-09-06T10:34:32.696Z,5.30
2018-09-06T10:39:37.643Z,5.23
2018-09-06T10:44:43.094Z,4.90
2018-09-06T10:49:48.272Z,4.83
2018-09-06T10:54:53.259Z,5.20
2018-09-06T10:59:58.302Z,6.07
2018-09-06T11:05:03.585Z,5.60
2018-09-06T11:10:08.592Z,5.05
2018-09-06T11:15:13.473Z,6.22
2018-09-06T11:20:18.440Z,6.05
2018-09-06T11:25:23.568Z,5.50
2018-09-06T11:30:28.491Z,5.90
2018-09-06T11:35:34.392Z,5.47
2018-09-06T11:40:39.413Z,5.03
2018-09-06T11:45:44.424Z,5.50
2018-09-06T11:50:50.295Z,5.10
2018-09-06T11:55:55.361Z,6.03
2018-09-06T12:01:00.877Z,5.53
2018-09-06T12:06:06.329Z,6.12
2018-09-06T12:11:11.312Z,5.05
2018-09-06T12:16:16.510Z,5.92
2018-09-06T12:21:22.047Z,5.53
2018-09-06T12:26:27.307Z,5.67
2018-09-06T12:31:32.772Z,5.40
2018-09-06T12:36:37.867Z,5.83
2018-09-06T12:41:43.358Z,4.78
2018-09-06T12:46:48.412Z,5.37
2018-09-06T12:51:53.384Z,4.60
2018-09-06T12:56:58.464Z,5.45
2018-09-06T13:02:03.511Z,4.35
2018-09-06T13:07:08.503Z,3.90
2018-09-06T13:12:13.503Z,4.10
2018-09-06T13:17:18.507Z,4.75
2018-09-06T13:22:23.524Z,4.97
2018-09-06T13:27:28.623Z,4.58
2018-09-06T13:32:35.639Z,3.90
2018-09-06T13:37:40.558Z,4.20
2018-09-06T13:42:59.668Z,4.50
2018-09-06T13:48:09.524Z,3.40
2018-09-06T13:53:15.085Z,4.50
2018-09-06T13:58:20.169Z,3.50
2018-09-06T14:03:25.243Z,3.45
2018-09-06T14:08:30.155Z,3.75
2018-09-06T14:13:35.002Z,3.20
2018-09-06T14:18:39.952Z,3.50
2018-09-06T14:23:45.401Z,3.77
2018-09-06T14:28:51.413Z,3.90
2018-09-06T14:33:56.465Z,4.23
2018-09-06T14:39:01.574Z,4.13
2018-09-06T14:44:07.004Z,4.60
2018-09-06T14:49:11.872Z,4.67
2018-09-06T14:54:16.900Z,4.30
2018-09-06T14:59:21.958Z,3.80
2018-09-06T15:04:26.987Z,5.10
2018-09-06T15:09:32.963Z,5.10
2018-09-06T15:14:37.796Z,4.93
2018-09-06T15:19:42.744Z,4.70
2018-09-06T15:24:47.819Z,4.37
2018-09-06T15:29:52.747Z,4.97
2018-09-06T15:34:57.594Z,4.33
2018-09-06T15:40:02.578Z,4.17
2018-09-06T15:45:07.919Z,4.90
2018-09-06T15:50:12.952Z,6.53
2018-09-06T15:55:17.804Z,5.83
2018-09-06T16:00:23.029Z,5.87
2018-09-06T16:05:27.940Z,5.37
2018-09-06T16:10:32.915Z,5.80
2018-09-06T16:15:38.117Z,6.07
2018-09-06T16:20:43.043Z,6.30
2018-09-06T16:25:49.014Z,5.73
2018-09-06T16:30:53.932Z,5.73
2018-09-06T16:35:58.979Z,6.07
2018-09-06T16:41:04.023Z,6.80
2018-09-06T16:46:09.016Z,5.60
2018-09-06T16:51:14.378Z,5.73
2018-09-06T16:56:19.370Z,5.13
2018-09-06T17:01:24.358Z,5.97
2018-09-06T17:06:29.296Z,4.80
2018-09-06T17:11:34.373Z,4.13
2018-09-06T17:16:39.350Z,4.30
2018-09-06T17:21:44.336Z,6.00
2018-09-06T17:26:49.264Z,5.37
2018-09-06T17:31:54.284Z,5.10
2018-09-06T17:36:59.320Z,7.27
2018-09-06T17:42:04.289Z,5.80
2018-09-06T17:47:09.361Z,5.57
2018-09-06T17:52:14.449Z,5.13
2018-09-06T17:57:19.315Z,4.50
2018-09-06T18:02:24.402Z,4.90
2018-09-06T18:07:29.508Z,5.30
2018-09-06T18:12:34.647Z,6.00
2018-09-06T18:17:39.800Z,5.20
2018-09-06T18:22:44.606Z,5.83
2018-09-06T18:27:49.668Z,5.93
2018-09-06T18:33:00.878Z,5.73
2018-09-06T18:38:05.880Z,6.23
2018-09-06T18:43:11.823Z,7.00
2018-09-06T18:48:16.804Z,8.50
2018-09-06T18:53:21.844Z,6.30
2018-09-06T18:58:26.878Z,6.10
2018-09-06T19:03:31.740Z,5.50
2018-09-06T19:08:36.855Z,5.77
2018-09-06T19:13:41.944Z,5.07
2018-09-06T19:18:47.490Z,5.27
2018-09-06T19:23:52.555Z,4.57
2018-09-06T19:28:57.639Z,4.30
2018-09-06T19:34:03.535Z,4.43
2018-09-06T19:39:11.877Z,4.47
2018-09-06T19:44:16.947Z,4.90
2018-09-06T19:49:22.062Z,5.20
2018-09-06T19:54:28.008Z,4.10
2018-09-06T19:59:33.128Z,4.37
2018-09-06T20:04:38.844Z,5.17
2018-09-06T20:09:44.367Z,4.83
2018-09-06T20:14:51.122Z,4.57
2018-09-06T20:19:56.998Z,4.60
2018-09-06T20:25:04.379Z,4.60
2018-09-06T20:30:09.615Z,6.30
2018-09-06T20:35:15.390Z,7.20
2018-09-06T20:40:20.581Z,7.13
2018-09-06T20:45:25.738Z,6.93
2018-09-06T20:50:31.135Z,5.20
2018-09-06T20:55:36.609Z,5.13
2018-09-06T21:00:41.844Z,4.60
2018-09-06T21:05:46.972Z,5.43
2018-09-06T21:10:52.522Z,7.00
2018-09-06T21:15:57.745Z,5.30
2018-09-06T21:21:02.863Z,6.30
2018-09-06T21:26:07.911Z,5.40
2018-09-06T21:31:12.876Z,4.77
2018-09-06T21:36:18.012Z,5.47
2018-09-06T21:41:23.199Z,5.67
2018-09-06T21:46:28.301Z,5.70
2018-09-06T21:51:33.373Z,5.33
2018-09-06T21:56:38.273Z,5.47
2018-09-06T22:01:43.192Z,5.60
2018-09-06T22:06:48.188Z,5.50
2018-09-06T22:11:53.276Z,5.67
2018-09-06T22:16:58.445Z,5.67
2018-09-06T22:22:03.486Z,5.00
2018-09-06T22:27:08.668Z,5.60
2018-09-06T22:32:13.612Z,5.47
2018-09-06T22:37:18.508Z,5.57
2018-09-06T22:42:23.356Z,6.13
2018-09-06T22:47:28.336Z,5.97
2018-09-06T22:52:33.363Z,6.33
2018-09-06T22:57:38.252Z,6.73
2018-09-06T23:02:48.141Z,6.80
2018-09-06T23:07:53.004Z,7.20
2018-09-06T23:12:58.231Z,6.77
2018-09-06T23:18:03.120Z,6.87
2018-09-06T23:23:08.437Z,6.73
2018-09-06T23:28:13.337Z,6.50
2018-09-06T23:33:19.022Z,6.90
2018-09-06T23:38:24.000Z,7.43
2018-09-06T23:43:28.919Z,6.73
2018-09-06T23:48:33.804Z,6.27
2018-09-06T23:53:38.681Z,5.60
2018-09-06T23:58:44.529Z,6.17
